Terminal Aerodrome Forecast
Issued by NWS

Home | Current Version | Previous Version | Text Only | Print | Product List | Glossary On
Versions: 1 2 3 4 5 6 7 8 9 10 11 12 13 14 15 16 17 18 19 20 21 22 23 24 25 26 27 28
000
FTUS45 KBOU 200530
TAFBJC
TAF
KBJC 200530Z 2006/2106 25007KT P6SM SCT220
     FM201100 04006KT P6SM FEW120 SCT200
     FM202000 03012KT P6SM FEW070 SCT120 BKN180
     FM202300 04014G22KT P6SM SCT015 BKN035 OVC050 PROB30 2101/2104
      3SM -SHRASN BKN012 OVC020
     FM210400 04014G24KT 3SM -SN BR BKN008 OVC014=

USA.gov is the U.S. government's official web portal to all federal, state and local government web resources and services.